createdAt,value
2022-09-20T00:04:45.046Z,96.53
2022-09-20T00:09:46.531Z,95.95
2022-09-20T00:14:48.001Z,96.21
2022-09-20T00:19:49.449Z,95.56
2022-09-20T00:24:50.821Z,95.62
2022-09-20T00:29:53.243Z,96.00
2022-09-20T00:35:10.954Z,96.49
2022-09-20T00:40:17.140Z,96.74
2022-09-20T00:45:23.016Z,97.36
2022-09-20T00:50:27.933Z,97.15
2022-09-20T00:55:30.118Z,97.54
2022-09-20T01:00:32.191Z,98.98
2022-09-20T01:05:34.543Z,98.10
2022-09-20T01:10:36.570Z,98.63
2022-09-20T01:15:39.751Z,99.28
2022-09-20T01:20:43.532Z,97.97
2022-09-20T01:26:03.290Z,98.51
2022-09-20T01:31:04.762Z,98.12
2022-09-20T01:36:06.867Z,98.62
2022-09-20T01:41:22.331Z,99.48
2022-09-20T01:46:28.548Z,98.79
2022-09-20T01:51:59.746Z,99.23
2022-09-20T01:57:17.844Z,97.91
2022-09-20T02:02:44.216Z,97.20
2022-09-20T02:08:01.630Z,98.38
2022-09-20T02:13:38.568Z,99.70
2022-09-20T02:19:01.760Z,98.73
2022-09-20T02:24:06.406Z,98.80
2022-09-20T02:29:36.207Z,99.61
2022-09-20T02:34:47.044Z,99.09
2022-09-20T02:40:09.267Z,100.00
2022-09-20T02:45:44.173Z,98.32
2022-09-20T02:51:16.193Z,98.42
2022-09-20T02:56:29.594Z,98.62
2022-09-20T03:01:56.296Z,98.33
2022-09-20T03:07:20.671Z,97.36
2022-09-20T03:12:57.279Z,97.49
2022-09-20T03:18:21.250Z,98.00
2022-09-20T03:23:33.034Z,97.01
2022-09-20T03:28:50.155Z,96.27
2022-09-20T03:34:03.635Z,96.50
2022-09-20T03:39:31.734Z,96.41
2022-09-20T03:44:34.188Z,96.76
2022-09-20T03:49:55.119Z,95.75
2022-09-20T03:55:41.576Z,96.25
2022-09-20T04:01:03.281Z,96.34
2022-09-20T04:06:20.605Z,96.38
2022-09-20T04:11:38.312Z,96.26
2022-09-20T04:16:50.831Z,96.20
2022-09-20T04:21:58.027Z,96.74
2022-09-20T04:27:05.131Z,97.37
2022-09-20T04:32:25.499Z,97.33
2022-09-20T04:37:33.017Z,97.87
2022-09-20T04:43:04.054Z,97.76
2022-09-20T04:48:24.879Z,97.90
2022-09-20T04:53:51.281Z,99.15
2022-09-20T04:59:30.608Z,99.80
2022-09-20T05:04:59.325Z,100.00
2022-09-20T05:10:32.190Z,100.00
2022-09-20T05:15:36.924Z,100.00
2022-09-20T05:21:29.206Z,100.00
2022-09-20T05:27:00.046Z,99.81
2022-09-20T05:32:23.567Z,99.50
2022-09-20T05:38:06.111Z,97.82
2022-09-20T05:43:14.315Z,94.58
2022-09-20T05:49:01.035Z,92.64
2022-09-20T05:54:39.653Z,85.55
2022-09-20T05:59:56.752Z,76.32
2022-09-20T06:05:40.133Z,68.53
2022-09-20T06:10:41.841Z,65.62
2022-09-20T06:16:25.452Z,59.33
2022-09-20T06:21:48.564Z,55.95
2022-09-20T06:26:54.160Z,53.09
2022-09-20T06:31:56.723Z,51.89
2022-09-20T06:37:29.820Z,52.67
2022-09-20T06:42:31.988Z,49.94
2022-09-20T06:47:38.117Z,48.60
2022-09-20T06:52:43.436Z,47.53
2022-09-20T06:57:46.868Z,49.00
2022-09-20T07:02:51.100Z,49.97
2022-09-20T07:08:00.004Z,50.92
2022-09-20T07:13:04.445Z,50.04
2022-09-20T07:18:08.251Z,52.20
2022-09-20T07:23:10.677Z,52.97
2022-09-20T07:28:15.254Z,52.08
2022-09-20T07:33:21.621Z,51.57
2022-09-20T07:38:23.408Z,48.70
2022-09-20T07:43:25.264Z,43.01
2022-09-20T07:48:31.038Z,41.27
2022-09-20T07:53:32.996Z,38.14
2022-09-20T07:58:36.461Z,37.03
2022-09-20T08:03:42.428Z,36.95
2022-09-20T08:08:44.214Z,35.65
2022-09-20T08:14:07.709Z,33.67
2022-09-20T08:19:23.934Z,35.10
2022-09-20T08:24:26.780Z,38.31
2022-09-20T08:29:29.280Z,40.23
2022-09-20T08:34:31.817Z,38.70
2022-09-20T08:45:05.414Z,38.00
2022-09-20T08:50:17.327Z,37.80
2022-09-20T08:55:28.293Z,37.87
2022-09-20T09:00:33.316Z,37.91
2022-09-20T09:05:47.159Z,38.21
2022-09-20T09:10:58.824Z,38.95
2022-09-20T09:16:12.827Z,38.91
2022-09-20T09:21:43.011Z,38.08
2022-09-20T09:26:44.763Z,39.23
2022-09-20T09:31:49.117Z,38.69
2022-09-20T09:36:50.599Z,38.42
2022-09-20T09:41:52.123Z,36.55
2022-09-20T09:46:54.121Z,36.00
2022-09-20T09:51:55.607Z,35.47
2022-09-20T09:57:05.700Z,36.69
2022-09-20T10:02:19.458Z,38.54
2022-09-20T10:07:29.831Z,39.03
2022-09-20T10:12:49.856Z,38.86
2022-09-20T10:17:57.477Z,40.55
2022-09-20T10:24:01.439Z,39.74
2022-09-20T10:28:59.010Z,39.16
2022-09-20T10:34:17.470Z,38.36
2022-09-20T10:39:41.123Z,38.50
2022-09-20T10:45:53.389Z,40.74
2022-09-20T10:51:00.157Z,41.35
2022-09-20T10:56:24.488Z,42.00
2022-09-20T11:02:08.477Z,43.44
2022-09-20T11:07:53.381Z,44.27
2022-09-20T11:13:02.865Z,44.07
2022-09-20T11:18:24.528Z,44.76
2022-09-20T11:23:56.607Z,45.97
2022-09-20T11:29:09.105Z,45.58
2022-09-20T11:34:20.153Z,45.64
2022-09-20T11:39:48.077Z,44.00
2022-09-20T11:44:50.640Z,43.18
2022-09-20T11:50:04.094Z,41.89
2022-09-20T11:55:25.174Z,41.17
2022-09-20T12:00:31.475Z,42.42
2022-09-20T12:05:42.323Z,43.32
2022-09-20T12:10:58.587Z,43.51
2022-09-20T12:16:05.123Z,42.23
2022-09-20T12:21:15.379Z,45.27
2022-09-20T12:26:23.146Z,43.33
2022-09-20T12:31:33.796Z,44.03
2022-09-20T12:36:38.324Z,44.42
2022-09-20T12:42:10.326Z,44.36
2022-09-20T12:47:11.695Z,45.00
2022-09-20T12:52:58.900Z,45.29
2022-09-20T12:58:02.359Z,44.99
2022-09-20T13:03:31.819Z,45.44
2022-09-20T13:08:48.192Z,46.47
2022-09-20T13:13:58.279Z,46.35
2022-09-20T13:19:07.429Z,46.13
2022-09-20T13:24:17.459Z,46.86
2022-09-20T13:29:40.614Z,48.44
2022-09-20T13:34:41.999Z,47.73
2022-09-20T13:39:43.746Z,47.76
2022-09-20T13:44:46.096Z,47.56
2022-09-20T13:49:47.620Z,48.43
2022-09-20T13:54:49.150Z,48.74
2022-09-20T13:59:50.931Z,48.92
2022-09-20T14:04:56.132Z,49.42
2022-09-20T14:09:58.876Z,48.22
2022-09-20T14:15:04.687Z,49.11
2022-09-20T14:20:06.857Z,49.80
2022-09-20T14:25:14.426Z,49.19
2022-09-20T14:30:31.769Z,47.17
2022-09-20T14:35:33.679Z,48.50
2022-09-20T14:40:44.844Z,49.04
2022-09-20T14:45:53.323Z,49.63
2022-09-20T14:51:18.080Z,49.52
2022-09-20T14:56:37.698Z,50.00
2022-09-20T15:01:42.591Z,50.11
2022-09-20T15:06:44.251Z,48.90
2022-09-20T15:11:45.733Z,48.68
2022-09-20T15:16:47.345Z,48.88
2022-09-20T15:21:48.953Z,49.95
2022-09-20T15:26:50.422Z,50.33
2022-09-20T15:31:52.062Z,51.54
2022-09-20T15:36:54.751Z,51.24
2022-09-20T15:41:56.550Z,51.05
2022-09-20T15:46:58.137Z,52.09
2022-09-20T15:51:59.830Z,52.58
2022-09-20T15:57:02.025Z,52.85
2022-09-20T16:02:03.671Z,53.33
2022-09-20T16:07:05.749Z,53.67
2022-09-20T16:12:07.390Z,53.79
2022-09-20T16:17:08.844Z,54.25
2022-09-20T16:22:10.796Z,54.96
2022-09-20T16:27:12.222Z,55.65
2022-09-20T16:32:13.767Z,56.32
2022-09-20T16:37:16.963Z,57.13
2022-09-20T16:42:18.636Z,58.15
2022-09-20T16:47:25.103Z,59.07
2022-09-20T16:52:26.646Z,59.37
2022-09-20T16:57:28.885Z,60.18
2022-09-20T17:02:30.281Z,60.40
2022-09-20T17:07:32.117Z,60.64
2022-09-20T17:12:34.502Z,60.93
2022-09-20T17:17:35.973Z,60.68
2022-09-20T17:22:37.589Z,60.85
2022-09-20T17:27:39.200Z,62.21
2022-09-20T17:32:48.122Z,63.33
2022-09-20T17:37:49.545Z,64.84
2022-09-20T17:42:50.974Z,65.37
2022-09-20T17:47:56.748Z,65.67
2022-09-20T17:52:58.195Z,66.41
2022-09-20T17:58:00.163Z,67.00
2022-09-20T18:03:04.865Z,66.96
2022-09-20T18:08:06.711Z,68.15
2022-09-20T18:13:08.306Z,69.59
2022-09-20T18:18:09.709Z,70.46
2022-09-20T18:23:11.219Z,70.90
2022-09-20T18:28:12.631Z,71.66
2022-09-20T18:33:16.690Z,72.41
2022-09-20T18:38:18.941Z,73.11
2022-09-20T18:43:20.416Z,74.49
2022-09-20T18:48:24.775Z,74.66
2022-09-20T18:53:32.515Z,74.85
2022-09-20T18:58:34.875Z,75.34
2022-09-20T19:03:58.726Z,77.19
2022-09-20T19:09:10.392Z,76.54
2022-09-20T19:14:21.951Z,76.21
2022-09-20T19:19:36.586Z,75.87
2022-09-20T19:24:43.931Z,75.76
2022-09-20T19:29:45.874Z,76.74
2022-09-20T19:34:51.256Z,77.01
2022-09-20T19:40:01.933Z,80.02
2022-09-20T19:45:22.232Z,82.63
2022-09-20T19:50:36.107Z,79.40
2022-09-20T19:55:37.893Z,78.95
2022-09-20T20:00:40.219Z,79.21
2022-09-20T20:06:16.875Z,79.45
2022-09-20T20:11:35.746Z,79.40
2022-09-20T20:16:53.189Z,80.51
2022-09-20T20:21:54.528Z,80.27
2022-09-20T20:26:55.935Z,81.78
2022-09-20T20:31:57.392Z,81.17
2022-09-20T20:37:00.905Z,81.95
2022-09-20T20:42:03.836Z,81.57
2022-09-20T20:47:06.604Z,82.09
2022-09-20T20:52:08.967Z,82.77
2022-09-20T20:57:10.382Z,82.86
2022-09-20T21:02:11.889Z,83.07
2022-09-20T21:07:13.305Z,83.49
2022-09-20T21:12:14.768Z,84.08
2022-09-20T21:17:16.320Z,84.45
2022-09-20T21:22:17.713Z,84.04
2022-09-20T21:27:20.662Z,84.83
2022-09-20T21:32:22.058Z,84.65
2022-09-20T21:37:23.485Z,85.58
2022-09-20T21:42:27.259Z,86.37
2022-09-20T21:47:28.817Z,88.57
2022-09-20T21:52:30.582Z,89.71
2022-09-20T21:57:32.021Z,90.62
2022-09-20T22:02:34.283Z,89.49
2022-09-20T22:07:35.733Z,90.32
2022-09-20T22:12:37.114Z,89.57
2022-09-20T22:17:38.542Z,89.09
2022-09-20T22:22:39.989Z,89.18
2022-09-20T22:27:41.369Z,89.11
2022-09-20T22:32:43.045Z,89.46
2022-09-20T22:37:44.425Z,90.37
2022-09-20T22:42:45.856Z,89.35
2022-09-20T22:47:47.384Z,90.54
2022-09-20T22:52:48.772Z,90.42
2022-09-20T22:57:53.337Z,90.46
2022-09-20T23:02:58.896Z,89.76
2022-09-20T23:08:00.449Z,89.72
2022-09-20T23:13:02.417Z,90.61
2022-09-20T23:18:05.037Z,91.19
2022-09-20T23:23:06.449Z,90.85
2022-09-20T23:28:07.850Z,90.52
2022-09-20T23:33:09.421Z,90.38
2022-09-20T23:38:11.471Z,91.12
2022-09-20T23:43:13.014Z,91.10
2022-09-20T23:48:14.392Z,90.16
2022-09-20T23:53:15.928Z,91.65
2022-09-20T23:58:17.371Z,92.03
